Terminal Aerodrome Forecast
Issued by NWS

Home | Current Version | Previous Version | Text Only | Print | Product List | Glossary On
Versions: 1 2 3 4 5 6 7 8 9 10 11 12 13 14 15 16 17 18
000
FTUS44 KLZK 161700
TAFLIT
TAF
KLIT 161724Z 1618/1718 07006KT P6SM OVC015
     FM162200 06006KT P6SM BKN020
     FM170300 VRB03KT P6SM SCT020
     FM170900 00000KT 4SM BR SCT020
     FM171500 14004KT P6SM BKN020=

USA.gov is the U.S. government's official web portal to all federal, state and local government web resources and services.